Terminal Aerodrome Forecast
Issued by NWS

Home | Current Version | Previous Version | Text Only | Print | Product List | Glossary On
Versions: 1 2 3 4 5 6 7 8 9 10 11 12 13 14 15 16 17 18
476
FTUS42 KJAX 221425 AAB
TAFCRG
TAF AMD
KCRG 221425Z 2214/2312 13003KT P6SM FEW008
     FM221500 14006KT P6SM SCT020
      TEMPO 2215/2217 BKN020
     FM221700 14010G18KT P6SM SCT030 BKN200
     FM230000 15008KT P6SM SCT020 OVC150
     FM230400 18007KT 2SM SHRA BR VCTS OVC005CB PROB30 2305/2308
      1/2SM +TSRA=

USA.gov is the U.S. government's official web portal to all federal, state and local government web resources and services.